Time;durP1;ratioP1;P1;durP2;ratioP2;P2;SDS_P1;SDS_P2;PMS_P1;PMS_P2;Temp;Humidity;BMP_temperature;BMP_pressure;BME280_temperature;BME280_humidity;BME280_pressure;Samples;Min_cycle;Max_cycle;Signal;HPM_P1;HPM_P2
2022/03/12 00:01:21;;;;;;;0.40;0.40;;;4.90;58.20;;;;;;5055839;28;20445;-77
2022/03/12 00:03:50;;;;;;;2.10;0.80;;;4.90;58.10;;;;;;5055505;28;20944;-77
2022/03/12 00:06:18;;;;;;;0.83;0.83;;;4.90;58.30;;;;;;5055766;28;20460;-77
2022/03/12 00:08:46;;;;;;;0.50;0.50;;;4.90;58.90;;;;;;5055572;28;20477;-77
2022/03/12 00:11:15;;;;;;;0.60;0.60;;;4.80;58.90;;;;;;5055116;28;20993;-77
2022/03/12 00:13:43;;;;;;;0.40;0.33;;;4.80;59.00;;;;;;5055499;28;20457;-77
2022/03/12 00:16:13;;;;;;;0.40;0.40;;;4.80;59.50;;;;;;5055223;28;20827;-77
2022/03/12 00:18:41;;;;;;;0.30;0.30;;;4.80;60.10;;;;;;5055476;28;20564;-77
2022/03/12 00:21:11;;;;;;;1.83;1.77;;;4.80;61.00;;;;;;5055397;28;20817;-77
2022/03/12 00:23:38;;;;;;;0.50;0.50;;;4.80;61.30;;;;;;5055150;28;20964;-77
2022/03/12 00:26:06;;;;;;;0.70;0.70;;;4.80;61.80;;;;;;5055039;28;20960;-77
2022/03/12 00:28:33;;;;;;;1.73;0.90;;;4.70;61.10;;;;;;5055283;28;20470;-77
2022/03/12 00:30:59;;;;;;;0.70;0.50;;;4.70;59.90;;;;;;5055179;28;20504;-78
2022/03/12 00:33:27;;;;;;;0.30;0.30;;;4.70;59.50;;;;;;5055227;28;20453;-77
2022/03/12 00:35:55;;;;;;;0.97;0.97;;;4.70;59.70;;;;;;5055923;28;20823;-77
2022/03/12 00:38:23;;;;;;;0.80;0.60;;;4.70;60.60;;;;;;5055172;28;20462;-77
2022/03/12 00:40:50;;;;;;;1.67;0.83;;;4.70;61.30;;;;;;5055831;28;20521;-77
2022/03/12 00:43:17;;;;;;;0.30;0.30;;;4.70;61.90;;;;;;5055069;28;20454;-77
2022/03/12 00:45:44;;;;;;;0.70;0.70;;;4.70;62.10;;;;;;5055032;28;20450;-77
2022/03/12 00:48:11;;;;;;;0.63;0.57;;;4.60;62.00;;;;;;5054898;28;20465;-77
2022/03/12 00:50:38;;;;;;;1.33;0.50;;;4.60;60.10;;;;;;5054486;28;21026;-77
2022/03/12 00:53:05;;;;;;;0.30;0.30;;;4.60;59.60;;;;;;5054619;28;20433;-77
2022/03/12 00:55:33;;;;;;;0.67;0.67;;;4.60;59.20;;;;;;5054534;28;21010;-77
2022/03/12 00:57:59;;;;;;;1.07;0.90;;;4.60;59.20;;;;;;5054536;28;20477;-77
2022/03/12 01:00:27;;;;;;;0.30;0.30;;;4.60;59.20;;;;;;5054728;28;20446;-77
2022/03/12 01:02:54;;;;;;;0.70;0.70;;;4.50;59.20;;;;;;5054483;28;20503;-77
2022/03/12 01:05:23;;;;;;;0.70;0.70;;;4.60;59.20;;;;;;5053688;28;20802;-77
2022/03/12 01:07:51;;;;;;;0.40;0.40;;;4.70;58.50;;;;;;5054498;28;20476;-77
2022/03/12 01:10:17;;;;;;;0.60;0.60;;;4.70;58.40;;;;;;5053910;28;20484;-78
2022/03/12 01:12:46;;;;;;;0.50;0.50;;;4.70;58.60;;;;;;5054522;28;20423;-77
2022/03/12 01:15:13;;;;;;;1.60;0.60;;;4.80;58.80;;;;;;5054431;28;20446;-77
2022/03/12 01:17:41;;;;;;;1.13;0.70;;;4.80;58.90;;;;;;5054070;28;20511;-77
2022/03/12 01:20:10;;;;;;;0.50;0.50;;;4.80;58.80;;;;;;5054114;28;20445;-77
2022/03/12 01:22:38;;;;;;;2.10;0.67;;;4.80;59.00;;;;;;5054072;28;20442;-77
2022/03/12 01:25:06;;;;;;;2.30;1.10;;;4.80;59.10;;;;;;5053943;28;20474;-77
2022/03/12 01:27:33;;;;;;;0.30;0.30;;;4.90;60.20;;;;;;5054140;28;20474;-77
2022/03/12 01:30:02;;;;;;;0.60;0.60;;;4.90;60.80;;;;;;5054057;28;20446;-77
2022/03/12 01:32:28;;;;;;;1.57;0.80;;;4.90;60.20;;;;;;5053817;28;20446;-77
2022/03/12 01:34:55;;;;;;;0.83;0.83;;;4.80;60.90;;;;;;5053787;28;20454;-77
2022/03/12 01:37:22;;;;;;;0.50;0.50;;;4.90;60.00;;;;;;5053691;28;20461;-77
2022/03/12 01:39:49;;;;;;;0.70;0.70;;;4.90;60.50;;;;;;5054020;28;20445;-77
2022/03/12 01:42:17;;;;;;;0.50;0.40;;;4.90;60.60;;;;;;5054307;28;20445;-77
2022/03/12 01:44:46;;;;;;;2.37;1.13;;;4.90;59.70;;;;;;5053784;28;20444;-77
2022/03/12 01:47:15;;;;;;;0.50;0.50;;;4.90;59.30;;;;;;5053780;28;20449;-77
2022/03/12 01:49:42;;;;;;;0.53;0.53;;;4.90;59.50;;;;;;5053791;28;20847;-77
2022/03/12 01:52:11;;;;;;;0.97;0.97;;;4.90;60.20;;;;;;5053640;28;20485;-77
2022/03/12 01:54:40;;;;;;;0.53;0.53;;;4.90;59.70;;;;;;5053568;28;20454;-77
2022/03/12 01:57:09;;;;;;;0.50;0.50;;;4.90;59.90;;;;;;5053613;28;20829;-77
2022/03/12 01:59:36;;;;;;;0.80;0.80;;;4.90;60.20;;;;;;5053634;28;20435;-77
2022/03/12 02:02:04;;;;;;;0.63;0.63;;;4.90;59.50;;;;;;5053601;28;20484;-77
2022/03/12 02:04:32;;;;;;;0.70;0.70;;;4.90;59.50;;;;;;5053580;28;20458;-77
2022/03/12 02:07:00;;;;;;;0.50;0.50;;;4.90;59.50;;;;;;5053170;28;20941;-77
2022/03/12 02:09:27;;;;;;;0.63;0.63;;;4.90;60.30;;;;;;5053451;28;20489;-77
2022/03/12 02:11:54;;;;;;;0.50;0.40;;;4.90;61.20;;;;;;5052960;28;20501;-77
2022/03/12 02:14:24;;;;;;;1.10;0.80;;;4.90;61.20;;;;;;5053304;28;20444;-77
2022/03/12 02:16:53;;;;;;;0.80;0.80;;;4.90;60.50;;;;;;5053157;28;20450;-77
2022/03/12 02:19:21;;;;;;;0.60;0.60;;;4.90;60.40;;;;;;5053378;28;20446;-77
2022/03/12 02:21:54;;;;;;;0.63;0.63;;;4.90;61.30;;;;;;5053358;28;20442;-77
2022/03/12 02:24:23;;;;;;;0.37;0.37;;;4.90;61.50;;;;;;5053408;28;20925;-77
2022/03/12 02:26:52;;;;;;;0.93;0.73;;;4.80;61.60;;;;;;5053282;28;20517;-77
2022/03/12 02:29:22;;;;;;;0.30;0.30;;;4.80;61.50;;;;;;5053001;28;20467;-77
2022/03/12 02:31:50;;;;;;;1.13;1.13;;;4.70;61.80;;;;;;5053189;28;20484;-77
2022/03/12 02:34:23;;;;;;;0.47;0.47;;;4.70;60.80;;;;;;5053200;28;20446;-77
2022/03/12 02:36:51;;;;;;;0.73;0.73;;;4.70;60.60;;;;;;5052848;28;20917;-77
2022/03/12 02:39:20;;;;;;;0.50;0.50;;;4.60;60.20;;;;;;5052688;28;20821;-77
2022/03/12 02:41:49;;;;;;;0.70;0.70;;;4.70;60.50;;;;;;5052925;28;20972;-77
2022/03/12 02:44:21;;;;;;;0.90;0.90;;;4.70;61.60;;;;;;5052762;28;20440;-77
2022/03/12 02:47:10;;;;;;;0.40;0.40;;;4.60;62.40;;;;;;5053153;28;20453;-77
2022/03/12 02:49:40;;;;;;;0.47;0.47;;;4.60;64.30;;;;;;5053108;28;20434;-77
2022/03/12 02:52:07;;;;;;;0.50;0.30;;;4.60;64.00;;;;;;5053180;28;20509;-77
2022/03/12 02:54:35;;;;;;;0.50;0.50;;;4.60;63.90;;;;;;5052742;28;20456;-77
2022/03/12 02:57:03;;;;;;;0.40;0.40;;;4.50;63.40;;;;;;5052930;28;20824;-77
2022/03/12 02:59:30;;;;;;;0.80;0.80;;;4.50;63.50;;;;;;5052683;28;20450;-77
2022/03/12 03:01:57;;;;;;;0.30;0.30;;;4.40;63.80;;;;;;5052984;28;20446;-77
2022/03/12 03:04:24;;;;;;;0.37;0.33;;;4.40;64.50;;;;;;5052961;28;20452;-77
2022/03/12 03:06:51;;;;;;;0.50;0.50;;;4.40;65.50;;;;;;5052598;28;20952;-77
2022/03/12 03:09:18;;;;;;;2.00;1.90;;;4.40;64.80;;;;;;5052854;28;20466;-77
2022/03/12 03:11:44;;;;;;;1.70;1.63;;;4.40;64.90;;;;;;5052397;28;20481;-77
2022/03/12 03:14:13;;;;;;;0.40;0.40;;;4.40;65.50;;;;;;5052684;28;20457;-77
2022/03/12 03:16:40;;;;;;;0.80;0.80;;;4.40;65.70;;;;;;5052845;28;20445;-77
2022/03/12 03:19:07;;;;;;;0.40;0.30;;;4.30;66.00;;;;;;5052660;28;20469;-77
2022/03/12 03:21:35;;;;;;;0.40;0.40;;;4.30;66.00;;;;;;5052462;28;20793;-77
2022/03/12 03:24:01;;;;;;;1.60;0.70;;;4.40;66.00;;;;;;5052762;28;20450;-77
2022/03/12 03:26:51;;;;;;;0.90;0.90;;;4.30;66.40;;;;;;5052562;28;20461;-77
2022/03/12 03:29:20;;;;;;;3.70;1.97;;;4.30;66.60;;;;;;5056321;28;20505;-77
2022/03/12 03:31:47;;;;;;;0.40;0.40;;;4.30;65.80;;;;;;5056386;28;20823;-77
2022/03/12 03:34:15;;;;;;;0.33;0.33;;;4.20;66.00;;;;;;5056078;28;20452;-77
2022/03/12 03:36:41;;;;;;;0.63;0.50;;;4.20;66.40;;;;;;5056304;28;20457;-77
2022/03/12 03:39:08;;;;;;;2.73;2.53;;;4.10;66.00;;;;;;5056006;28;20544;-77
2022/03/12 03:41:35;;;;;;;0.60;0.60;;;4.10;64.40;;;;;;5056000;28;20496;-77
2022/03/12 03:44:02;;;;;;;0.70;0.57;;;4.20;64.40;;;;;;5055897;28;20434;-77
2022/03/12 03:46:30;;;;;;;0.60;0.60;;;4.20;65.70;;;;;;5056033;28;20795;-77
2022/03/12 03:48:57;;;;;;;1.40;0.43;;;4.10;66.00;;;;;;5056021;28;20469;-77
2022/03/12 03:51:24;;;;;;;0.37;0.37;;;4.10;66.30;;;;;;5055981;28;20477;-77
2022/03/12 03:53:52;;;;;;;0.90;0.90;;;4.00;67.10;;;;;;5056004;28;20959;-78
2022/03/12 03:56:20;;;;;;;0.40;0.37;;;3.90;67.80;;;;;;5056046;28;20457;-77
2022/03/12 03:58:47;;;;;;;3.93;1.53;;;3.90;67.60;;;;;;5055792;28;20462;-77
2022/03/12 04:01:18;;;;;;;0.40;0.40;;;3.80;67.60;;;;;;5055620;28;20449;-77
2022/03/12 04:03:48;;;;;;;1.13;0.60;;;3.70;68.10;;;;;;5055590;28;20430;-77
2022/03/12 04:06:15;;;;;;;0.30;0.30;;;3.60;68.40;;;;;;5055980;28;20466;-77
2022/03/12 04:08:42;;;;;;;0.73;0.73;;;3.60;68.50;;;;;;5055591;28;20466;-77
2022/03/12 04:11:15;;;;;;;0.80;0.80;;;3.60;68.00;;;;;;5055381;28;20550;-77
2022/03/12 04:13:42;;;;;;;0.67;0.67;;;3.50;67.60;;;;;;5055662;28;20434;-77
2022/03/12 04:16:10;;;;;;;1.23;1.23;;;3.60;68.00;;;;;;5055845;28;20433;-77
2022/03/12 04:18:38;;;;;;;0.80;0.40;;;3.60;68.50;;;;;;5055536;28;20477;-77
2022/03/12 04:21:08;;;;;;;0.33;0.33;;;3.60;68.20;;;;;;5055234;28;20971;-77
2022/03/12 04:23:35;;;;;;;0.93;0.80;;;3.70;68.80;;;;;;5055565;28;20441;-77
2022/03/12 04:26:02;;;;;;;0.37;0.37;;;3.70;67.80;;;;;;5055074;28;20457;-77
2022/03/12 04:28:32;;;;;;;1.50;1.40;;;3.80;67.30;;;;;;5055025;28;20465;-77
2022/03/12 04:31:00;;;;;;;0.40;0.40;;;3.80;66.90;;;;;;5055310;28;20529;-77
2022/03/12 04:33:28;;;;;;;1.13;1.13;;;3.90;65.90;;;;;;5054978;28;21021;-77
2022/03/12 04:35:56;;;;;;;0.30;0.30;;;3.90;65.50;;;;;;5055245;28;20445;-77
2022/03/12 04:38:25;;;;;;;0.30;0.30;;;4.00;65.80;;;;;;5054603;28;21011;-77
2022/03/12 04:40:55;;;;;;;2.50;1.10;;;4.00;64.80;;;;;;5055160;28;20461;-77
2022/03/12 04:43:22;;;;;;;0.70;0.50;;;4.10;65.10;;;;;;5055065;28;20446;-77
2022/03/12 04:45:50;;;;;;;0.87;0.87;;;4.10;64.80;;;;;;5054753;28;20937;-77
2022/03/12 04:48:20;;;;;;;0.70;0.70;;;4.10;65.00;;;;;;5054932;28;20523;-77
2022/03/12 04:50:47;;;;;;;0.50;0.50;;;4.10;64.90;;;;;;5054977;28;20445;-77
2022/03/12 04:53:15;;;;;;;0.83;0.83;;;4.10;65.70;;;;;;5054743;28;20477;-77
2022/03/12 04:55:45;;;;;;;2.00;1.90;;;4.10;65.60;;;;;;5054873;28;20456;-77
2022/03/12 04:58:12;;;;;;;0.30;0.30;;;4.20;65.90;;;;;;5054737;28;20543;-77
2022/03/12 05:00:40;;;;;;;0.60;0.60;;;4.20;66.00;;;;;;5055050;28;20441;-77
2022/03/12 05:03:09;;;;;;;0.30;0.30;;;4.20;66.00;;;;;;5054690;28;20442;-77
2022/03/12 05:05:39;;;;;;;1.17;1.10;;;4.20;66.50;;;;;;5054698;28;20450;-77
2022/03/12 05:08:06;;;;;;;0.40;0.40;;;4.20;67.20;;;;;;5054593;28;20470;-77
2022/03/12 05:10:34;;;;;;;0.30;0.30;;;4.20;67.10;;;;;;5054455;28;20500;-77
2022/03/12 05:13:02;;;;;;;0.30;0.30;;;4.20;66.90;;;;;;5054579;28;20466;-77
2022/03/12 05:15:36;;;;;;;3.23;2.93;;;4.20;67.30;;;;;;5054570;28;20438;-77
2022/03/12 05:18:06;;;;;;;0.70;0.60;;;4.20;67.10;;;;;;5054414;28;20475;-77
2022/03/12 05:20:34;;;;;;;0.67;0.67;;;4.20;66.80;;;;;;5054439;28;20480;-77
2022/03/12 05:23:01;;;;;;;0.80;0.80;;;4.20;66.50;;;;;;5054305;28;20456;-77
2022/03/12 05:25:29;;;;;;;0.80;0.63;;;4.20;67.30;;;;;;5054308;28;20548;-77
2022/03/12 05:27:56;;;;;;;0.73;0.73;;;4.30;66.50;;;;;;5054163;28;20584;-77
2022/03/12 05:30:24;;;;;;;0.90;0.90;;;4.30;67.00;;;;;;5054201;28;20446;-77
2022/03/12 05:32:52;;;;;;;0.60;0.60;;;4.30;67.60;;;;;;5054086;28;20489;-77
2022/03/12 05:35:20;;;;;;;0.40;0.33;;;4.30;67.80;;;;;;5054362;28;20803;-77
2022/03/12 05:37:48;;;;;;;1.30;1.13;;;4.20;67.30;;;;;;5054005;28;20476;-77
2022/03/12 05:40:19;;;;;;;0.50;0.50;;;4.30;67.40;;;;;;5053721;28;20434;-77
2022/03/12 05:42:47;;;;;;;0.43;0.43;;;4.20;67.40;;;;;;5053990;28;20897;-77
2022/03/12 05:45:15;;;;;;;0.40;0.40;;;4.20;67.20;;;;;;5053676;28;20438;-77
2022/03/12 05:47:43;;;;;;;0.43;0.43;;;4.20;67.50;;;;;;5053946;28;20461;-77
2022/03/12 05:50:13;;;;;;;1.07;1.07;;;4.10;68.30;;;;;;5053110;28;20462;-77
2022/03/12 05:52:42;;;;;;;0.30;0.30;;;4.10;68.30;;;;;;5053398;28;20485;-77
2022/03/12 05:55:11;;;;;;;0.67;0.67;;;4.10;68.80;;;;;;5053843;28;20454;-77
2022/03/12 05:57:39;;;;;;;9.73;1.53;;;4.10;69.00;;;;;;5053372;28;20892;-77
2022/03/12 06:00:11;;;;;;;0.30;0.30;;;4.10;69.30;;;;;;5053684;28;20450;-77
2022/03/12 06:02:40;;;;;;;0.60;0.60;;;4.00;69.20;;;;;;5053715;28;20806;-77
2022/03/12 06:05:13;;;;;;;1.50;1.40;;;4.00;69.60;;;;;;5053564;28;20438;-77
2022/03/12 06:07:43;;;;;;;1.33;1.33;;;4.00;70.00;;;;;;5053518;28;20473;-77
2022/03/12 06:10:11;;;;;;;0.93;0.70;;;4.00;69.50;;;;;;5053363;28;20559;-77
2022/03/12 06:12:42;;;;;;;0.77;0.77;;;4.00;69.40;;;;;;5053668;28;20474;-77
2022/03/12 06:15:11;;;;;;;0.30;0.30;;;4.00;70.10;;;;;;5053439;28;20434;-77
2022/03/12 06:17:38;;;;;;;0.30;0.30;;;4.00;69.50;;;;;;5053346;28;20478;-77
2022/03/12 06:20:05;;;;;;;0.43;0.43;;;4.10;70.00;;;;;;5053077;28;20541;-77
2022/03/12 06:22:34;;;;;;;1.23;1.23;;;4.20;71.00;;;;;;5053061;28;20940;-77
2022/03/12 06:25:00;;;;;;;0.40;0.40;;;4.20;70.90;;;;;;5053383;28;20529;-77
2022/03/12 06:27:27;;;;;;;0.40;0.40;;;4.30;70.90;;;;;;5053265;28;20469;-77
2022/03/12 06:29:56;;;;;;;0.73;0.53;;;4.40;70.90;;;;;;5053283;28;20493;-77
2022/03/12 06:32:23;;;;;;;0.50;0.50;;;4.50;70.90;;;;;;5053031;28;20473;-77
2022/03/12 06:34:50;;;;;;;0.47;0.47;;;4.50;69.80;;;;;;5053252;28;20457;-77
2022/03/12 06:37:17;;;;;;;0.50;0.50;;;4.70;69.30;;;;;;5053177;28;20465;-77
2022/03/12 06:39:45;;;;;;;0.50;0.47;;;4.90;67.70;;;;;;5053030;28;20821;-77
2022/03/12 06:42:11;;;;;;;1.27;1.27;;;5.10;67.00;;;;;;5052851;28;20974;-77
2022/03/12 06:44:38;;;;;;;0.40;0.37;;;5.20;66.40;;;;;;5053032;28;20458;-77
2022/03/12 06:47:08;;;;;;;1.63;1.53;;;5.40;66.90;;;;;;5053040;28;20449;-77
2022/03/12 06:49:35;;;;;;;0.40;0.40;;;5.60;65.40;;;;;;5052987;28;20493;-77
2022/03/12 06:52:03;;;;;;;1.70;0.50;;;5.70;65.50;;;;;;5052977;28;20481;-77
2022/03/12 06:54:29;;;;;;;0.30;0.30;;;5.80;64.50;;;;;;5052925;28;20511;-77
2022/03/12 06:56:58;;;;;;;0.43;0.43;;;5.90;64.70;;;;;;5052648;28;20450;-77
2022/03/12 06:59:24;;;;;;;2.50;0.93;;;5.90;63.40;;;;;;5053042;28;20507;-77
2022/03/12 07:01:51;;;;;;;1.07;1.07;;;5.90;63.60;;;;;;5054788;28;20446;-77
2022/03/12 07:04:21;;;;;;;2.23;1.10;;;5.90;64.40;;;;;;5056881;28;20483;-77
2022/03/12 07:06:48;;;;;;;0.80;0.80;;;5.90;65.10;;;;;;5056926;28;20445;-77
2022/03/12 07:09:15;;;;;;;3.07;0.67;;;5.90;66.30;;;;;;5056645;28;20473;-77
2022/03/12 07:11:42;;;;;;;0.40;0.40;;;6.00;65.60;;;;;;5056252;28;21023;-77
2022/03/12 07:14:10;;;;;;;1.00;1.00;;;6.00;65.30;;;;;;5056780;28;20464;-77
2022/03/12 07:16:37;;;;;;;1.53;0.83;;;6.00;64.50;;;;;;5056423;28;20979;-77
2022/03/12 07:19:04;;;;;;;0.77;0.77;;;6.00;64.40;;;;;;5056629;28;20449;-77
2022/03/12 07:21:33;;;;;;;3.50;2.73;;;6.00;63.60;;;;;;5057031;28;20453;-78
2022/03/12 07:24:00;;;;;;;1.67;1.57;;;6.10;63.10;;;;;;5056595;28;20449;-77
2022/03/12 07:26:26;;;;;;;0.30;0.30;;;6.20;63.20;;;;;;5056654;28;20441;-77
2022/03/12 07:28:53;;;;;;;0.83;0.83;;;6.20;63.50;;;;;;5056093;28;20475;-77
2022/03/12 07:31:23;;;;;;;0.37;0.37;;;6.30;62.90;;;;;;5056153;28;20441;-77
2022/03/12 07:33:50;;;;;;;0.30;0.30;;;6.30;62.80;;;;;;5056397;28;20515;-77
2022/03/12 07:36:17;;;;;;;0.47;0.40;;;6.40;62.90;;;;;;5056055;28;20449;-77
2022/03/12 07:38:44;;;;;;;2.00;0.60;;;6.40;63.40;;;;;;5056480;28;20484;-77
2022/03/12 07:41:12;;;;;;;1.83;1.30;;;6.50;64.00;;;;;;5055958;28;20453;-77
2022/03/12 07:43:39;;;;;;;0.40;0.40;;;6.60;62.50;;;;;;5056233;28;20477;-77
2022/03/12 07:46:06;;;;;;;1.37;0.77;;;6.70;61.80;;;;;;5056208;28;20897;-77
2022/03/12 07:48:35;;;;;;;0.40;0.30;;;6.80;62.40;;;;;;5056046;28;20474;-77
2022/03/12 07:51:02;;;;;;;0.83;0.80;;;7.00;60.40;;;;;;5056608;28;20457;-76
2022/03/12 07:53:30;;;;;;;1.53;1.40;;;7.00;60.20;;;;;;5056056;28;20487;-77
2022/03/12 07:55:57;;;;;;;0.50;0.40;;;7.00;60.90;;;;;;5055995;28;20492;-77
2022/03/12 07:58:24;;;;;;;0.40;0.40;;;7.10;61.00;;;;;;5055934;28;20469;-77
2022/03/12 08:00:53;;;;;;;1.13;0.70;;;7.20;60.50;;;;;;5055926;28;20488;-77
2022/03/12 08:03:19;;;;;;;1.33;1.33;;;7.30;60.10;;;;;;5056045;28;20435;-77
2022/03/12 08:05:47;;;;;;;0.60;0.60;;;7.60;60.10;;;;;;5056548;28;20788;-78
2022/03/12 08:08:14;;;;;;;0.83;0.67;;;7.60;60.10;;;;;;5055459;28;20454;-78
2022/03/12 08:13:25;;;;;;;0.97;0.87;;;7.80;58.90;;;;;;5054791;28;20465;-77
2022/03/12 08:15:52;;;;;;;0.60;0.60;;;7.90;59.30;;;;;;5055368;28;20905;-78
2022/03/12 08:18:19;;;;;;;0.50;0.50;;;8.10;59.50;;;;;;5055525;28;20563;-77
2022/03/12 08:20:47;;;;;;;2.80;1.60;;;8.20;59.60;;;;;;5055486;28;20444;-78
2022/03/12 08:23:14;;;;;;;1.33;1.17;;;8.40;59.00;;;;;;5055529;28;20545;-78
2022/03/12 08:25:41;;;;;;;1.13;1.00;;;8.50;58.20;;;;;;5055158;28;20434;-77
2022/03/12 08:28:08;;;;;;;0.40;0.40;;;8.70;57.60;;;;;;5055351;28;20465;-78
2022/03/12 08:30:36;;;;;;;0.80;0.50;;;8.80;57.40;;;;;;5055224;28;20450;-78
2022/03/12 08:33:03;;;;;;;2.00;1.90;;;8.90;57.20;;;;;;5055092;28;20485;-78
2022/03/12 08:35:31;;;;;;;1.10;0.80;;;9.00;57.40;;;;;;5055175;28;20445;-78
2022/03/12 08:37:59;;;;;;;2.10;1.70;;;9.20;57.20;;;;;;5055068;28;20481;-78
2022/03/12 08:40:26;;;;;;;0.60;0.60;;;9.30;57.40;;;;;;5055167;28;20913;-78
2022/03/12 08:42:53;;;;;;;1.57;1.20;;;9.40;56.60;;;;;;5055645;28;20430;-78
2022/03/12 08:45:20;;;;;;;1.17;0.77;;;9.60;56.50;;;;;;5055152;28;20483;-78
2022/03/12 08:47:47;;;;;;;1.03;0.33;;;9.80;56.40;;;;;;5054960;28;20472;-78
2022/03/12 08:50:15;;;;;;;3.47;0.97;;;10.00;54.60;;;;;;5055014;28;20457;-78
2022/03/12 08:52:42;;;;;;;1.83;1.83;;;10.30;55.10;;;;;;5054561;28;21015;-78
2022/03/12 08:55:11;;;;;;;2.90;1.30;;;10.60;54.00;;;;;;5054567;28;20484;-78
2022/03/12 08:57:38;;;;;;;0.70;0.70;;;10.80;53.50;;;;;;5054761;28;20505;-78
2022/03/12 09:00:08;;;;;;;2.60;1.40;;;11.10;52.70;;;;;;5054820;28;20454;-81
2022/03/12 09:02:35;;;;;;;0.70;0.63;;;11.50;53.40;;;;;;5054735;28;20444;-81
2022/03/12 09:05:04;;;;;;;2.07;1.47;;;11.60;51.90;;;;;;5054697;28;20449;-81
2022/03/12 09:07:31;;;;;;;1.23;0.83;;;11.90;52.20;;;;;;5054567;28;20543;-81
2022/03/12 09:09:58;;;;;;;1.00;0.83;;;12.30;52.00;;;;;;5054352;28;20452;-81
2022/03/12 09:12:26;;;;;;;2.70;1.03;;;13.00;50.10;;;;;;5053983;28;20801;-81
2022/03/12 09:14:53;;;;;;;2.27;1.07;;;13.60;48.20;;;;;;5054518;28;20446;-81
2022/03/12 09:17:20;;;;;;;2.00;1.07;;;14.00;49.00;;;;;;5054950;28;20465;-80
2022/03/12 09:19:47;;;;;;;1.30;1.20;;;14.60;47.60;;;;;;5054402;28;20489;-81
2022/03/12 09:22:14;;;;;;;3.93;1.33;;;15.00;46.50;;;;;;5054346;28;20445;-81
2022/03/12 09:24:40;;;;;;;1.50;1.07;;;15.40;45.70;;;;;;5053250;28;20458;-81
2022/03/12 09:27:08;;;;;;;3.50;1.63;;;16.30;45.00;;;;;;5053898;28;20450;-81
2022/03/12 09:29:38;;;;;;;3.90;1.90;;;16.50;43.70;;;;;;5054311;28;20831;-81
2022/03/12 09:32:08;;;;;;;5.53;1.83;;;16.20;43.20;;;;;;5054802;28;20438;-81
2022/03/12 09:34:35;;;;;;;3.47;1.57;;;15.60;44.50;;;;;;5054093;28;20517;-80
2022/03/12 09:37:02;;;;;;;2.33;2.03;;;15.50;45.00;;;;;;5054055;28;20507;-81
2022/03/12 09:39:29;;;;;;;2.77;1.70;;;16.00;45.10;;;;;;5054025;28;20452;-81
2022/03/12 09:41:56;;;;;;;1.83;1.03;;;16.70;43.90;;;;;;5054042;28;20445;-81
2022/03/12 09:44:22;;;;;;;2.10;1.40;;;16.90;42.80;;;;;;5053708;28;20898;-81
2022/03/12 09:46:51;;;;;;;4.90;2.63;;;17.00;42.50;;;;;;5053643;28;20446;-81
2022/03/12 09:49:17;;;;;;;1.50;1.40;;;17.40;42.60;;;;;;5053808;28;20476;-81
2022/03/12 09:51:45;;;;;;;3.17;1.47;;;18.30;41.80;;;;;;5053643;28;20434;-81
2022/03/12 09:54:12;;;;;;;2.97;1.63;;;19.10;40.90;;;;;;5053513;28;20466;-81
2022/03/12 09:56:39;;;;;;;4.90;2.03;;;19.60;41.90;;;;;;5053837;28;20433;-81
2022/03/12 09:59:06;;;;;;;5.17;1.77;;;19.90;40.00;;;;;;5053677;28;20469;-81
2022/03/12 10:01:32;;;;;;;3.13;2.07;;;20.20;39.80;;;;;;5053891;28;20453;-81
2022/03/12 10:04:01;;;;;;;4.20;2.30;;;20.00;38.90;;;;;;5053718;28;20440;-81
2022/03/12 10:06:30;;;;;;;3.77;1.83;;;19.80;39.60;;;;;;5053256;28;20921;-81
2022/03/12 10:08:57;;;;;;;2.97;1.33;;;19.90;39.80;;;;;;5053214;28;21001;-81
2022/03/12 10:11:24;;;;;;;2.63;1.77;;;19.70;39.70;;;;;;5053238;28;20477;-81
2022/03/12 10:13:51;;;;;;;5.27;1.80;;;19.70;39.40;;;;;;5053376;28;20505;-81
2022/03/12 10:16:18;;;;;;;1.90;1.80;;;19.60;39.90;;;;;;5053099;28;20434;-81
2022/03/12 10:18:45;;;;;;;2.83;1.47;;;19.60;39.80;;;;;;5053313;28;20466;-81
2022/03/12 10:21:14;;;;;;;6.90;2.37;;;19.40;40.30;;;;;;5053144;28;20916;-81
2022/03/12 10:23:41;;;;;;;3.30;1.73;;;19.10;40.60;;;;;;5053381;28;20430;-81
2022/03/12 10:26:08;;;;;;;6.03;1.70;;;18.60;41.20;;;;;;5053335;28;20433;-81
2022/03/12 10:28:36;;;;;;;3.30;2.57;;;18.70;41.10;;;;;;5053205;28;20477;-81
2022/03/12 10:31:05;;;;;;;2.63;1.53;;;18.90;42.40;;;;;;5053415;28;20438;-81
2022/03/12 10:33:33;;;;;;;3.37;1.80;;;19.10;40.50;;;;;;5053255;28;20855;-80
2022/03/12 10:36:10;;;;;;;1.77;1.67;;;19.10;40.40;;;;;;5053090;28;20913;-81
2022/03/12 10:38:40;;;;;;;3.93;1.63;;;19.20;40.70;;;;;;5053155;28;20480;-82
2022/03/12 10:41:07;;;;;;;2.57;1.50;;;19.90;40.60;;;;;;5052866;28;20437;-82
2022/03/12 10:43:45;;;;;;;1.43;1.33;;;20.60;39.50;;;;;;5053236;28;20430;-82
2022/03/12 10:46:19;;;;;;;6.40;1.97;;;21.10;38.60;;;;;;5053796;28;20448;-82
2022/03/12 10:48:48;;;;;;;3.73;1.80;;;21.00;38.60;;;;;;5053089;28;20468;-83
2022/03/12 10:51:16;;;;;;;2.90;1.80;;;21.30;38.80;;;;;;5053154;28;20452;-83
2022/03/12 10:53:45;;;;;;;2.60;1.50;;;21.80;38.40;;;;;;5052717;28;20484;-82
2022/03/12 10:56:12;;;;;;;2.80;1.97;;;21.70;37.30;;;;;;5052843;28;20438;-83
2022/03/12 10:58:39;;;;;;;1.93;1.37;;;21.90;37.20;;;;;;5053167;28;20481;-83
2022/03/12 11:01:05;;;;;;;1.53;1.27;;;21.90;37.10;;;;;;5053056;28;20433;-82
2022/03/12 11:03:34;;;;;;;1.90;1.47;;;21.40;37.20;;;;;;5052996;28;20444;-83
2022/03/12 11:06:01;;;;;;;2.17;1.60;;;21.30;38.30;;;;;;5053277;28;20438;-83
2022/03/12 11:08:29;;;;;;;4.97;2.47;;;21.60;37.90;;;;;;5052866;28;20457;-82
2022/03/12 11:10:59;;;;;;;4.23;1.73;;;20.90;38.50;;;;;;5052572;28;20484;-82
2022/03/12 11:13:34;;;;;;;3.30;1.80;;;19.70;40.10;;;;;;5052737;28;20488;-82
2022/03/12 11:16:12;;;;;;;1.67;0.90;;;18.80;40.70;;;;;;5052597;28;20451;-82
2022/03/12 11:18:40;;;;;;;3.17;2.00;;;18.00;42.40;;;;;;5052521;28;20512;-82
2022/03/12 11:21:06;;;;;;;4.40;2.07;;;17.20;44.10;;;;;;5052770;28;20456;-82
2022/03/12 11:23:33;;;;;;;1.93;1.50;;;16.30;45.50;;;;;;5052588;28;20813;-82
2022/03/12 11:26:06;;;;;;;3.70;1.73;;;16.00;46.80;;;;;;5052740;28;20477;-82
2022/03/12 11:28:35;;;;;;;2.73;0.93;;;15.90;46.80;;;;;;5053635;28;20468;-82
2022/03/12 11:31:04;;;;;;;4.13;1.00;;;15.70;47.10;;;;;;5052414;28;20932;-83
2022/03/12 11:33:30;;;;;;;1.20;1.10;;;15.60;47.50;;;;;;5052490;28;21006;-83
2022/03/12 11:36:01;;;;;;;4.50;1.83;;;15.50;48.30;;;;;;5052614;28;20453;-84
2022/03/12 11:38:29;;;;;;;1.00;0.80;;;15.20;48.50;;;;;;5052265;28;20469;-84
2022/03/12 11:41:06;;;;;;;1.50;1.20;;;15.10;47.70;;;;;;5052686;28;20456;-84
2022/03/12 11:43:40;;;;;;;1.90;1.07;;;15.20;48.40;;;;;;5052572;28;20897;-82
2022/03/12 11:46:09;;;;;;;1.23;1.13;;;15.20;49.20;;;;;;5053012;28;20434;-82
2022/03/12 11:48:38;;;;;;;1.23;0.80;;;15.20;49.30;;;;;;5053983;28;20584;-82
2022/03/12 11:51:16;;;;;;;1.03;0.80;;;15.20;50.20;;;;;;5057052;28;20607;-82
2022/03/12 11:53:45;;;;;;;2.37;1.83;;;15.00;49.30;;;;;;5056227;28;20983;-82
2022/03/12 11:56:13;;;;;;;10.83;0.90;;;14.80;49.70;;;;;;5055995;28;20469;-82
2022/03/12 11:58:40;;;;;;;1.33;0.93;;;14.70;50.30;;;;;;5055622;28;20454;-82
2022/03/12 12:01:07;;;;;;;3.47;1.20;;;14.70;49.50;;;;;;5055871;28;20450;-82
2022/03/12 12:03:34;;;;;;;2.43;1.53;;;14.60;50.00;;;;;;5056001;28;20428;-82
2022/03/12 12:06:01;;;;;;;0.90;0.90;;;14.50;50.60;;;;;;5055813;28;20449;-82
2022/03/12 12:08:27;;;;;;;1.20;1.10;;;14.20;52.00;;;;;;5055703;28;20822;-82
2022/03/12 12:10:58;;;;;;;2.23;1.37;;;14.10;52.20;;;;;;5055491;28;20482;-82
2022/03/12 12:13:26;;;;;;;3.97;1.20;;;14.00;52.80;;;;;;5055650;28;20434;-82
2022/03/12 12:15:54;;;;;;;1.63;1.53;;;13.80;52.60;;;;;;5055400;28;20921;-82
2022/03/12 12:18:22;;;;;;;1.13;0.90;;;14.00;52.30;;;;;;5055968;28;20868;-82
2022/03/12 12:20:49;;;;;;;4.97;0.80;;;14.20;52.10;;;;;;5055614;28;20492;-82
2022/03/12 12:23:18;;;;;;;0.70;0.60;;;14.20;51.10;;;;;;5055155;28;20949;-82
2022/03/12 12:25:46;;;;;;;3.93;1.30;;;14.20;51.00;;;;;;5055457;28;20453;-82
2022/03/12 12:28:18;;;;;;;0.70;0.70;;;14.10;51.40;;;;;;5055704;28;20507;-83
2022/03/12 12:30:48;;;;;;;0.67;0.67;;;14.00;51.60;;;;;;5054978;28;20952;-82
2022/03/12 12:33:17;;;;;;;0.97;0.97;;;14.00;51.70;;;;;;5055050;28;20956;-82
2022/03/12 12:35:45;;;;;;;2.10;1.20;;;13.80;52.10;;;;;;5055249;28;20474;-82
2022/03/12 12:38:13;;;;;;;1.10;1.00;;;13.80;53.20;;;;;;5054887;28;20998;-82
2022/03/12 12:40:45;;;;;;;2.23;1.30;;;13.80;52.00;;;;;;5055167;28;20553;-82
2022/03/12 12:43:14;;;;;;;0.50;0.50;;;13.80;51.90;;;;;;5055009;28;20909;-83
2022/03/12 12:46:04;;;;;;;9.00;1.17;;;13.80;53.00;;;;;;5055350;28;20450;-83
2022/03/12 12:48:33;;;;;;;1.43;0.70;;;13.70;53.40;;;;;;5055639;28;20600;-83
2022/03/12 12:51:06;;;;;;;1.27;0.60;;;13.70;53.60;;;;;;5054750;28;20953;-83
2022/03/12 12:53:36;;;;;;;3.03;0.80;;;13.60;53.10;;;;;;5054968;28;20491;-82
2022/03/12 12:56:31;;;;;;;2.23;1.07;;;13.40;53.80;;;;;;5055258;28;20433;-83
2022/03/12 12:59:06;;;;;;;2.30;1.13;;;13.50;53.40;;;;;;5008331;28;20489;-83
2022/03/12 13:01:47;;;;;;;0.93;0.93;;;13.50;53.60;;;;;;5054770;28;20449;-83